Time;durP1;ratioP1;P1;durP2;ratioP2;P2;SDS_P1;SDS_P2;PMS_P1;PMS_P2;Temp;Humidity;BMP_temperature;BMP_pressure;BME280_temperature;BME280_humidity;BME280_pressure;Samples;Min_cycle;Max_cycle;Signal;HPM_P1;HPM_P2
2022/10/01 00:01:44;;;;;;;10.27;6.03;;;;;;;15.72;64.94;95881.91;4974853;28;20029;-93
2022/10/01 00:04:09;;;;;;;9.27;5.25;;;;;;;15.70;64.70;95882.91;4977330;28;20081;-92
2022/10/01 00:06:35;;;;;;;10.85;5.30;;;;;;;15.66;64.75;95878.94;4964032;28;20034;-92
2022/10/01 00:09:00;;;;;;;7.32;4.95;;;;;;;15.59;65.27;95880.75;4979161;28;20033;-93
2022/10/01 00:11:25;;;;;;;12.95;5.28;;;;;;;15.59;65.34;95883.44;4979126;28;20030;-92
2022/10/01 00:13:51;;;;;;;15.57;5.40;;;;;;;15.61;65.59;95881.41;4989366;28;20032;-91
2022/10/01 00:16:19;;;;;;;10.20;5.13;;;;;;;15.67;65.52;95879.78;4961238;28;20049;-92
2022/10/01 00:18:45;;;;;;;7.30;5.03;;;;;;;15.65;65.73;95873.72;4978722;28;20046;-93
2022/10/01 00:21:20;;;;;;;10.55;4.93;;;;;;;15.60;66.12;95874.34;4962601;28;20113;-92
2022/10/01 00:23:45;;;;;;;9.40;5.28;;;;;;;15.67;65.79;95872.50;4996993;28;20409;-93
2022/10/01 00:26:19;;;;;;;11.07;5.05;;;;;;;15.62;65.33;95872.25;4978617;28;20026;-92
2022/10/01 00:28:46;;;;;;;8.45;4.70;;;;;;;15.63;63.96;95875.78;4998528;28;20084;-93
2022/10/01 00:31:11;;;;;;;7.57;5.07;;;;;;;15.55;64.75;95871.38;4997138;28;20026;-92
2022/10/01 00:33:37;;;;;;;7.30;4.95;;;;;;;15.57;64.89;95867.44;4981179;28;20088;-92
2022/10/01 00:36:07;;;;;;;8.85;5.18;;;;;;;15.54;63.88;95867.00;4983574;28;20528;-92
2022/10/01 00:38:32;;;;;;;5.50;4.32;;;;;;;15.50;64.01;95860.31;4998988;28;20053;-93
2022/10/01 00:41:06;;;;;;;8.95;5.22;;;;;;;15.50;63.32;95871.13;4982577;28;20034;-93
2022/10/01 00:43:32;;;;;;;6.68;4.45;;;;;;;15.45;62.83;95860.91;4981434;28;20026;-93
2022/10/01 00:46:07;;;;;;;7.93;4.05;;;;;;;15.38;64.14;95855.44;4988193;28;20053;-92
2022/10/01 00:48:34;;;;;;;7.88;4.50;;;;;;;15.39;64.03;95861.69;4981617;28;20059;-93
2022/10/01 00:51:00;;;;;;;7.78;4.20;;;;;;;15.28;63.44;95865.78;4980525;28;20035;-92
2022/10/01 00:53:26;;;;;;;4.75;3.75;;;;;;;15.26;63.43;95857.88;4980296;28;20033;-92
2022/10/01 00:55:54;;;;;;;8.10;4.40;;;;;;;15.29;63.68;95859.34;4980906;28;20030;-93
2022/10/01 00:58:20;;;;;;;5.85;4.10;;;;;;;15.26;64.02;95862.44;4980649;28;20034;-92
2022/10/01 01:00:46;;;;;;;8.27;4.45;;;;;;;15.27;64.14;95864.09;4982315;28;20386;-91
2022/10/01 01:03:11;;;;;;;7.53;4.47;;;;;;;15.26;64.26;95874.09;4982083;28;20151;-92
2022/10/01 01:05:38;;;;;;;7.70;4.22;;;;;;;15.18;64.44;95880.47;4978268;28;20034;-92
2022/10/01 01:08:03;;;;;;;11.25;4.93;;;;;;;15.15;64.19;95866.53;4996055;28;20030;-92
2022/10/01 01:10:48;;;;;;;7.72;4.47;;;;;;;15.11;64.78;95865.22;4979078;28;20500;-92
2022/10/01 01:13:22;;;;;;;8.23;5.00;;;;;;;15.06;64.80;95857.69;4996859;28;20066;-92
2022/10/01 01:16:14;;;;;;;12.40;5.65;;;;;;;15.07;64.76;95859.41;4977759;28;20406;-93
2022/10/01 01:19:08;;;;;;;7.20;4.43;;;;;;;15.05;64.44;95853.34;4976314;28;20037;-91
2022/10/01 01:21:39;;;;;;;8.00;4.68;;;;;;;15.05;64.21;95848.78;4960821;28;20452;-92
2022/10/01 01:24:10;;;;;;;7.43;4.68;;;;;;;15.03;64.24;95842.72;4976028;28;20037;-92
2022/10/01 01:26:48;;;;;;;8.20;5.55;;;;;;;14.93;64.59;95842.22;4975404;28;20034;-93
2022/10/01 01:29:25;;;;;;;8.10;4.50;;;;;;;14.93;63.84;95853.88;4979156;28;20030;-93
2022/10/01 01:31:50;;;;;;;8.50;4.65;;;;;;;14.90;64.11;95851.56;4976615;28;20037;-93
2022/10/01 01:34:21;;;;;;;7.38;4.47;;;;;;;14.87;64.05;95853.78;4962436;28;20022;-93
2022/10/01 01:36:53;;;;;;;9.90;4.53;;;;;;;14.86;64.11;95852.97;5009955;28;20018;-92
2022/10/01 01:39:18;;;;;;;7.80;4.78;;;;;;;14.85;64.30;95856.69;4994360;28;20050;-92
2022/10/01 01:41:48;;;;;;;6.10;4.25;;;;;;;14.80;64.54;95864.53;4990505;28;20510;-93
2022/10/01 01:44:15;;;;;;;7.50;4.90;;;;;;;14.74;64.94;95863.41;4978147;28;20019;-92
2022/10/01 01:46:41;;;;;;;9.48;4.60;;;;;;;14.71;65.18;95867.34;4961678;28;20129;-93
2022/10/01 01:49:06;;;;;;;11.23;5.30;;;;;;;14.72;65.18;95860.06;4977013;28;20049;-93
2022/10/01 01:51:42;;;;;;;7.90;4.40;;;;;;;14.66;65.24;95859.00;4976695;28;20022;-92
2022/10/01 01:54:08;;;;;;;8.95;4.60;;;;;;;14.60;65.67;95851.66;4976608;28;20151;-93
2022/10/01 01:56:34;;;;;;;7.00;4.40;;;;;;;14.61;66.07;95845.22;4994915;28;20026;-93
2022/10/01 01:59:00;;;;;;;7.78;5.65;;;;;;;14.70;65.35;95857.56;4992300;28;20092;-92
2022/10/01 02:01:33;;;;;;;7.95;4.68;;;;;;;14.69;65.57;95869.41;4960246;28;20034;-93
2022/10/01 02:04:00;;;;;;;8.10;5.18;;;;;;;14.69;65.79;95868.56;4984776;28;20025;-92
2022/10/01 02:06:57;;;;;;;8.10;4.53;;;;;;;14.64;65.79;95865.63;4995400;28;20038;-91
2022/10/01 02:10:03;;;;;;;9.13;4.72;;;;;;;14.53;66.03;95856.13;4994186;28;20026;-91
2022/10/01 02:12:43;;;;;;;10.77;5.00;;;;;;;14.57;66.20;95868.25;4992676;28;20066;-92
2022/10/01 02:15:50;;;;;;;9.82;5.60;;;;;;;14.37;66.89;95874.25;4960336;28;20026;-93
2022/10/01 02:18:34;;;;;;;6.32;4.53;;;;;;;14.43;66.69;95881.56;4981544;28;20042;-92
2022/10/01 02:21:23;;;;;;;8.02;4.78;;;;;;;14.41;67.10;95880.13;4995903;28;20444;-91
2022/10/01 02:24:21;;;;;;;6.30;4.80;;;;;;;14.44;67.48;95880.53;4979218;28;20030;-91
2022/10/01 02:26:46;;;;;;;9.82;5.32;;;;;;;14.51;67.32;95885.22;4971059;28;20064;-91
2022/10/01 02:29:15;;;;;;;7.05;4.57;;;;;;;14.57;67.27;95898.75;4977396;28;20034;-92
2022/10/01 02:31:40;;;;;;;14.02;4.90;;;;;;;14.60;66.81;95908.34;4978248;28;20041;-91
2022/10/01 02:34:06;;;;;;;10.05;4.28;;;;;;;14.57;65.99;95909.53;4997847;28;20026;-93
2022/10/01 02:36:32;;;;;;;9.88;5.07;;;;;;;14.58;66.38;95910.41;4998875;28;20030;-93
2022/10/01 02:38:57;;;;;;;6.53;4.45;;;;;;;14.59;65.95;95907.50;4998615;28;20126;-93
2022/10/01 02:41:29;;;;;;;8.15;4.40;;;;;;;14.60;66.04;95897.56;4997986;28;20466;-92
2022/10/01 02:44:02;;;;;;;11.63;4.78;;;;;;;14.55;65.25;95899.97;5014885;28;20401;-92
2022/10/01 02:46:54;;;;;;;8.93;4.55;;;;;;;14.49;65.40;95898.03;4997564;28;20031;-92
2022/10/01 02:49:20;;;;;;;7.72;5.22;;;;;;;14.50;65.32;95897.00;4998050;28;20050;-92
2022/10/01 02:52:12;;;;;;;8.32;4.90;;;;;;;14.39;65.37;95883.00;5011037;28;20035;-91
2022/10/01 02:54:46;;;;;;;5.68;4.80;;;;;;;14.38;65.58;95900.19;4992808;28;20026;-92
2022/10/01 02:57:23;;;;;;;9.88;4.60;;;;;;;14.37;66.12;95903.94;4992145;28;20095;-93
2022/10/01 03:00:09;;;;;;;9.82;4.63;;;;;;;14.39;65.36;95901.88;4976322;28;20037;-91
2022/10/01 03:02:34;;;;;;;15.30;4.82;;;;;;;14.39;64.64;95891.09;4974523;28;20050;-91
2022/10/01 03:04:59;;;;;;;8.93;4.68;;;;;;;14.31;65.40;95883.94;4974526;28;20026;-92
2022/10/01 03:07:26;;;;;;;8.75;4.60;;;;;;;14.33;65.63;95897.25;4991111;28;20034;-91
2022/10/01 03:09:51;;;;;;;8.60;4.63;;;;;;;14.36;65.61;95890.63;4974162;28;20084;-91
2022/10/01 03:12:17;;;;;;;11.75;4.82;;;;;;;14.21;66.08;95889.66;4973497;28;20031;-91
2022/10/01 03:14:45;;;;;;;9.80;4.95;;;;;;;14.13;66.58;95889.75;4958486;28;20109;-91
2022/10/01 03:17:11;;;;;;;9.60;5.00;;;;;;;14.15;67.17;95898.50;4989737;28;20033;-92
2022/10/01 03:19:36;;;;;;;8.50;4.47;;;;;;;14.25;67.33;95910.84;4992022;28;20052;-92
2022/10/01 03:22:02;;;;;;;8.43;4.40;;;;;;;14.31;66.80;95920.88;4989603;28;20034;-92
2022/10/01 03:24:28;;;;;;;13.32;5.30;;;;;;;14.30;67.11;95916.53;4992224;28;20037;-92
2022/10/01 03:26:56;;;;;;;11.60;4.80;;;;;;;14.27;66.27;95914.16;4978592;28;20041;-92
2022/10/01 03:29:22;;;;;;;11.93;5.00;;;;;;;14.23;67.18;95929.91;4977610;28;20090;-92
2022/10/01 03:31:48;;;;;;;10.52;5.25;;;;;;;14.22;66.92;95922.84;4995983;28;20026;-92
2022/10/01 03:34:13;;;;;;;10.00;5.10;;;;;;;14.14;66.82;95934.56;4995957;28;20494;-91
2022/10/01 03:36:39;;;;;;;11.32;4.80;;;;;;;14.20;66.53;95920.31;4978572;28;20085;-93
2022/10/01 03:39:04;;;;;;;13.15;4.70;;;;;;;14.10;67.02;95922.50;4977620;28;20027;-93
2022/10/01 03:41:30;;;;;;;9.30;4.95;;;;;;;13.95;68.19;95923.34;4995939;28;20034;-92
2022/10/01 03:43:55;;;;;;;12.27;5.10;;;;;;;14.01;67.83;95912.81;4995614;28;20089;-92
2022/10/01 03:46:20;;;;;;;11.82;5.57;;;;;;;13.93;68.15;95909.19;4992123;28;20030;-92
2022/10/01 03:48:48;;;;;;;13.25;5.53;;;;;;;13.90;67.96;95911.41;4996390;28;20073;-92
2022/10/01 03:51:13;;;;;;;9.13;5.20;;;;;;;13.88;67.97;95917.00;4994026;28;20093;-92
2022/10/01 03:53:38;;;;;;;12.20;4.97;;;;;;;13.93;67.61;95898.41;4977281;28;20056;-92
2022/10/01 03:56:04;;;;;;;10.93;5.40;;;;;;;13.93;67.69;95886.78;5004188;28;20559;-92
2022/10/01 03:58:29;;;;;;;11.10;4.88;;;;;;;13.84;68.58;95888.75;4993839;28;20031;-92
2022/10/01 04:00:55;;;;;;;9.45;5.00;;;;;;;13.92;68.07;95890.50;4959154;28;20037;-93
2022/10/01 04:03:20;;;;;;;9.50;5.47;;;;;;;13.91;67.76;95873.47;4975768;28;20033;-92
2022/10/01 04:05:46;;;;;;;14.50;5.32;;;;;;;13.78;68.22;95868.78;4975567;28;20022;-92
2022/10/01 04:08:11;;;;;;;10.35;5.45;;;;;;;13.70;69.01;95866.97;4959215;28;20154;-92
2022/10/01 04:10:37;;;;;;;11.98;5.07;;;;;;;13.73;68.48;95863.09;4975772;28;20086;-91
2022/10/01 04:13:03;;;;;;;13.27;6.88;;;;;;;13.70;68.83;95876.94;4979367;28;20117;-93
2022/10/01 04:15:28;;;;;;;11.98;5.40;;;;;;;13.75;68.70;95889.88;4977256;28;20022;-91
2022/10/01 04:17:54;;;;;;;13.15;5.70;;;;;;;13.78;68.50;95906.50;4974700;28;20034;-92
2022/10/01 04:20:19;;;;;;;12.68;6.07;;;;;;;13.82;68.65;95923.13;4991608;28;20053;-91
2022/10/01 04:22:45;;;;;;;12.57;5.57;;;;;;;13.78;69.04;95927.22;4990744;28;20393;-92
2022/10/01 04:25:11;;;;;;;12.02;5.07;;;;;;;13.78;69.20;95916.44;4974054;28;20501;-92
2022/10/01 04:27:39;;;;;;;12.20;5.35;;;;;;;13.86;68.99;95894.78;4973208;28;20026;-92
2022/10/01 04:30:06;;;;;;;10.25;5.85;;;;;;;13.89;68.77;95897.13;4957191;28;20027;-92
2022/10/01 04:32:32;;;;;;;16.63;5.35;;;;;;;13.91;68.77;95878.06;4997595;28;20034;-92
2022/10/01 04:34:57;;;;;;;12.93;5.65;;;;;;;13.93;69.28;95879.53;4980475;28;20027;-93
2022/10/01 04:37:23;;;;;;;13.57;6.13;;;;;;;14.00;68.45;95863.44;4974755;28;20032;-93
2022/10/01 04:39:48;;;;;;;14.98;6.30;;;;;;;13.95;68.71;95882.03;4976157;28;20030;-93
2022/10/01 04:42:14;;;;;;;14.07;5.95;;;;;;;14.02;68.50;95871.34;4975821;28;20066;-93
2022/10/01 04:44:39;;;;;;;13.65;6.45;;;;;;;14.02;68.88;95880.28;4976051;28;20027;-91
2022/10/01 04:47:05;;;;;;;11.50;6.35;;;;;;;14.00;68.71;95893.09;4978212;28;20109;-93
2022/10/01 04:49:32;;;;;;;17.60;6.72;;;;;;;14.12;68.49;95906.97;4988346;28;20051;-92
2022/10/01 04:51:58;;;;;;;10.40;6.13;;;;;;;14.12;67.65;95912.34;4972414;28;20065;-92
2022/10/01 04:54:23;;;;;;;10.38;6.57;;;;;;;14.18;68.22;95911.59;4971576;28;20035;-92
2022/10/01 04:56:49;;;;;;;13.18;5.90;;;;;;;14.26;67.79;95909.81;4955232;28;20035;-93
2022/10/01 04:59:14;;;;;;;9.02;5.68;;;;;;;14.35;68.20;95908.66;4973986;28;20030;-92
2022/10/01 05:01:40;;;;;;;9.23;5.75;;;;;;;14.37;68.19;95920.13;4973713;28;20038;-93
2022/10/01 05:04:07;;;;;;;9.35;5.50;;;;;;;14.37;68.04;95927.38;4976984;28;20035;-92
2022/10/01 05:06:33;;;;;;;6.82;5.18;;;;;;;14.41;68.52;95936.78;4980230;28;20058;-92
2022/10/01 05:08:58;;;;;;;8.82;5.47;;;;;;;14.46;68.68;95939.75;4989792;28;20023;-91
2022/10/01 05:11:23;;;;;;;8.77;5.90;;;;;;;14.58;68.47;95950.88;4977210;28;20031;-92
2022/10/01 05:13:49;;;;;;;10.50;5.60;;;;;;;14.68;67.12;95950.59;4980500;28;20058;-93
2022/10/01 05:16:14;;;;;;;11.88;4.95;;;;;;;14.73;67.39;95936.50;4962207;28;20078;-92
2022/10/01 05:18:40;;;;;;;9.55;5.53;;;;;;;14.78;67.02;95947.56;4990580;28;20031;-92
2022/10/01 05:21:06;;;;;;;7.20;5.40;;;;;;;14.97;66.70;95929.94;4983274;28;20038;-92
2022/10/01 05:23:32;;;;;;;8.13;5.35;;;;;;;15.08;67.03;95931.28;4999074;28;20027;-91
2022/10/01 05:25:58;;;;;;;6.95;4.82;;;;;;;15.27;66.40;95929.78;4980255;28;20023;-92
2022/10/01 05:28:23;;;;;;;7.90;5.07;;;;;;;15.25;66.12;95941.84;4985235;28;20058;-92
2022/10/01 05:30:49;;;;;;;9.05;5.40;;;;;;;15.42;65.90;95943.25;4986523;28;20026;-93
2022/10/01 05:33:15;;;;;;;11.85;5.28;;;;;;;15.39;66.40;95945.47;5005091;28;20030;-93
2022/10/01 05:35:40;;;;;;;8.73;5.30;;;;;;;15.50;66.50;95944.13;5004986;28;20045;-92
2022/10/01 05:38:06;;;;;;;9.65;5.78;;;;;;;15.56;66.13;95946.03;4989156;28;20031;-93
2022/10/01 05:40:32;;;;;;;9.90;5.38;;;;;;;15.74;65.57;95933.88;4990218;28;20038;-93
2022/10/01 05:42:58;;;;;;;10.70;5.50;;;;;;;15.86;65.01;95917.97;4991339;28;20031;-93
2022/10/01 05:45:25;;;;;;;9.40;5.47;;;;;;;15.75;65.72;95919.34;4990050;28;20027;-93
2022/10/01 05:48:01;;;;;;;11.55;5.38;;;;;;;15.85;66.10;95913.59;5000186;28;20077;-93
2022/10/01 05:50:30;;;;;;;8.40;5.20;;;;;;;15.84;65.49;95912.75;4976607;28;20030;-94
2022/10/01 05:52:55;;;;;;;10.05;5.55;;;;;;;15.84;66.05;95920.88;4994358;28;20038;-93
2022/10/01 05:55:21;;;;;;;13.00;6.60;;;;;;;15.82;66.15;95920.22;4990372;28;20525;-93
2022/10/01 05:58:19;;;;;;;12.50;5.50;;;;;;;15.80;66.65;95908.75;4991758;28;20473;-93
2022/10/01 06:00:44;;;;;;;8.65;5.30;;;;;;;15.92;66.18;95909.88;4951845;28;20038;-92
2022/10/01 06:03:11;;;;;;;9.88;5.68;;;;;;;15.99;65.89;95915.34;5003311;28;20038;-92
2022/10/01 06:05:37;;;;;;;7.00;4.63;;;;;;;16.10;65.83;95938.31;4985416;28;20054;-91
2022/10/01 06:08:06;;;;;;;9.77;4.95;;;;;;;16.34;64.36;95941.56;4986558;28;20026;-92
2022/10/01 06:10:31;;;;;;;12.02;5.00;;;;;;;16.33;64.07;95947.19;4990804;28;20029;-91
2022/10/01 06:13:06;;;;;;;9.60;5.22;;;;;;;16.53;64.09;95958.09;5008572;28;20030;-92
2022/10/01 06:15:37;;;;;;;9.60;5.53;;;;;;;16.72;63.36;95982.75;5012385;28;20052;-93
2022/10/01 06:18:03;;;;;;;7.38;5.30;;;;;;;16.55;63.49;95989.34;4998156;28;20022;-93
2022/10/01 06:20:29;;;;;;;10.65;5.03;;;;;;;16.78;63.09;95976.53;4993096;28;20061;-91
2022/10/01 06:22:55;;;;;;;12.70;5.05;;;;;;;16.89;62.78;95966.97;4993588;28;20030;-92
2022/10/01 06:25:21;;;;;;;10.73;6.00;;;;;;;17.11;62.23;95975.81;5148891;23;20062;-93
2022/10/01 06:27:56;;;;;;;8.55;5.05;;;;;;;17.31;61.12;95961.47;5030704;28;20048;-94
2022/10/01 06:30:28;;;;;;;8.00;4.95;;;;;;;17.48;61.43;95964.59;5015909;28;20133;-93
2022/10/01 06:33:01;;;;;;;12.13;5.63;;;;;;;17.42;60.80;95973.56;5002069;28;20492;-94
2022/10/01 06:35:27;;;;;;;11.68;5.32;;;;;;;17.55;60.82;95968.13;5018092;28;20026;-94
2022/10/01 06:37:52;;;;;;;16.42;5.72;;;;;;;17.39;61.12;95977.53;5035777;28;20064;-94
2022/10/01 06:40:18;;;;;;;7.43;5.78;;;;;;;17.45;60.65;95947.91;5017337;28;20026;-93
2022/10/01 06:42:47;;;;;;;12.85;5.85;;;;;;;17.74;60.14;95945.81;5034489;28;20038;-94
2022/10/01 06:45:13;;;;;;;12.68;5.32;;;;;;;17.61;61.67;95957.50;5016745;28;20014;-93
2022/10/01 06:47:38;;;;;;;13.18;6.00;;;;;;;17.92;61.25;95959.59;5036572;28;20065;-93
2022/10/01 06:50:04;;;;;;;18.08;6.15;;;;;;;18.18;60.42;95929.06;5035747;28;20034;-94
2022/10/01 06:52:48;;;;;;;12.55;6.22;;;;;;;18.21;59.17;95934.06;5037366;28;20041;-94
2022/10/01 07:00:24;;;;;;;29.88;7.35;;;;;;;18.35;59.04;95934.84;5161028;22;20060;-93
2022/10/01 07:02:50;;;;;;;26.50;7.18;;;;;;;18.52;58.74;95944.19;5039494;28;20044;-94
2022/10/01 07:05:15;;;;;;;24.83;7.78;;;;;;;18.70;58.21;95939.13;5058453;28;20031;-93
2022/10/01 07:07:42;;;;;;;25.92;7.82;;;;;;;18.89;59.33;95950.94;5053867;28;20081;-94
2022/10/01 07:10:08;;;;;;;23.15;7.07;;;;;;;18.80;58.65;95965.81;5058210;28;20032;-94
2022/10/01 07:12:34;;;;;;;24.92;7.47;;;;;;;18.88;57.66;95966.41;5040109;28;20028;-93
2022/10/01 07:14:59;;;;;;;21.40;7.53;;;;;;;19.00;57.31;95977.44;5041369;28;20033;-93
2022/10/01 07:17:25;;;;;;;17.67;6.50;;;;;;;18.95;57.79;95976.41;5041607;28;20033;-94
2022/10/01 07:19:50;;;;;;;14.35;6.05;;;;;;;18.92;57.05;95980.38;5040519;28;20048;-95
2022/10/01 07:22:18;;;;;;;10.35;5.78;;;;;;;18.83;57.19;95971.63;5076673;28;20032;-95
2022/10/01 07:24:44;;;;;;;12.50;5.93;;;;;;;19.14;55.76;95982.81;5053818;28;20040;-93
2022/10/01 07:27:09;;;;;;;16.25;6.18;;;;;;;19.16;56.13;95967.13;5052505;28;20028;-95
2022/10/01 07:29:34;;;;;;;10.60;5.03;;;;;;;19.25;56.19;95960.34;5055077;28;20023;-95
2022/10/01 07:32:00;;;;;;;11.85;6.10;;;;;;;19.61;56.83;95949.84;5038093;28;20033;-94
2022/10/01 07:34:31;;;;;;;9.00;5.20;;;;;;;19.86;55.69;95938.09;5035912;28;20028;-94
2022/10/01 07:36:57;;;;;;;8.95;5.32;;;;;;;19.72;55.13;95945.56;5052117;28;20025;-93
2022/10/01 07:39:22;;;;;;;11.65;6.10;;;;;;;20.01;53.79;95937.75;5037890;28;20079;-94
2022/10/01 07:41:50;;;;;;;10.98;5.78;;;;;;;20.02;54.51;95927.72;5068963;28;20033;-94
2022/10/01 07:44:16;;;;;;;11.77;5.47;;;;;;;20.12;54.51;95930.78;5071249;28;20028;-94
2022/10/01 07:46:41;;;;;;;11.55;5.05;;;;;;;19.98;53.93;95912.88;5514544;22;20076;-93
2022/10/01 07:51:49;;;;;;;10.23;4.85;;;;;;;20.00;54.57;95935.28;5876435;22;20093;-93
2022/10/01 07:54:15;;;;;;;11.25;4.97;;;;;;;19.98;54.21;95929.22;5053511;28;20037;-92
2022/10/01 07:56:40;;;;;;;14.25;5.10;;;;;;;19.95;54.70;95944.13;5096078;22;20056;-92
2022/10/01 07:59:16;;;;;;;10.95;5.10;;;;;;;19.60;55.60;95945.44;5215922;22;20045;-93
2022/10/01 08:01:42;;;;;;;11.13;4.90;;;;;;;19.81;55.27;95943.41;4999970;28;20112;-92
2022/10/01 08:06:52;;;;;;;11.80;5.05;;;;;;;19.97;54.89;95922.94;5030708;28;20063;-93
2022/10/01 08:09:18;;;;;;;10.43;4.95;;;;;;;19.95;55.44;95930.50;5001456;28;20085;-92
2022/10/01 08:11:44;;;;;;;8.90;4.97;;;;;;;19.80;56.79;95922.69;5034578;28;20463;-93
2022/10/01 08:14:10;;;;;;;13.85;5.45;;;;;;;19.83;57.21;95910.53;5034821;28;20024;-92
2022/10/01 08:16:38;;;;;;;13.68;5.50;;;;;;;19.84;56.91;95906.75;5015956;28;20041;-92
2022/10/01 08:19:04;;;;;;;11.52;6.00;;;;;;;19.81;55.13;95910.75;5017486;28;20049;-92
2022/10/01 08:21:29;;;;;;;11.77;5.38;;;;;;;19.77;55.51;95914.97;5045563;28;20489;-93
2022/10/01 08:23:54;;;;;;;12.80;6.13;;;;;;;19.74;55.53;95908.09;5042558;28;20033;-91
2022/10/01 08:26:20;;;;;;;9.00;6.30;;;;;;;19.70;56.18;95903.31;5032928;28;20021;-92
2022/10/01 08:28:45;;;;;;;10.45;6.07;;;;;;;19.59;56.25;95922.03;5038677;28;20029;-93
2022/10/01 08:31:11;;;;;;;11.60;5.95;;;;;;;19.51;56.46;95908.69;5036992;28;20033;-92
2022/10/01 08:33:37;;;;;;;13.52;6.05;;;;;;;19.54;57.17;95908.25;5043226;28;20037;-92
2022/10/01 08:36:03;;;;;;;12.25;5.80;;;;;;;19.46;57.53;95914.81;5036073;28;20460;-94
2022/10/01 08:38:28;;;;;;;14.05;5.80;;;;;;;19.43;57.49;95892.66;5020362;28;20029;-94
2022/10/01 08:40:54;;;;;;;9.13;5.30;;;;;;;19.58;57.06;95890.44;5036914;28;20024;-92
2022/10/01 08:45:57;;;;;;;9.93;5.22;;;;;;;19.50;57.39;95904.31;5402615;22;20068;-93
2022/10/01 08:48:39;;;;;;;14.70;5.25;;;;;;;19.48;58.30;95892.81;5023246;28;20045;-93
2022/10/01 08:51:16;;;;;;;10.55;7.10;;;;;;;19.12;59.98;95885.16;5036711;28;20025;-92
2022/10/01 08:54:06;;;;;;;11.68;5.60;;;;;;;19.00;60.21;95892.31;5053286;28;20077;-93
2022/10/01 08:56:34;;;;;;;9.93;4.95;;;;;;;19.29;59.53;95895.50;5026824;28;20026;-93
2022/10/01 09:01:35;;;;;;;9.07;5.47;;;;;;;19.24;59.46;95888.00;5512009;22;20237;-92
2022/10/01 09:04:00;;;;;;;10.07;5.80;;;;;;;19.51;59.22;95893.22;5042324;28;20017;-93
2022/10/01 09:06:26;;;;;;;9.93;5.25;;;;;;;19.60;59.37;95917.44;5416883;23;20053;-93
2022/10/01 09:09:15;;;;;;;10.77;5.65;;;;;;;19.44;59.50;95927.78;5005778;28;20033;-94
2022/10/01 09:12:19;;;;;;;11.02;5.50;;;;;;;19.50;60.80;95940.53;5024978;28;20041;-94
2022/10/01 09:15:15;;;;;;;12.93;5.60;;;;;;;19.55;60.35;95964.34;5040492;28;20084;-94
2022/10/01 09:20:19;;;;;;;12.57;6.63;;;;;;;19.26;60.79;95980.22;5391823;22;20063;-93
2022/10/01 09:22:56;;;;;;;11.65;6.40;;;;;;;19.23;60.87;96003.25;5058642;28;20093;-93
2022/10/01 09:25:26;;;;;;;10.73;6.20;;;;;;;19.14;61.34;96005.41;5043092;28;20064;-93
2022/10/01 09:28:00;;;;;;;9.98;5.85;;;;;;;18.98;62.38;96003.97;5041202;28;20033;-92
2022/10/01 09:30:27;;;;;;;10.55;7.18;;;;;;;18.70;64.49;95996.16;5038108;28;20136;-93
2022/10/01 09:32:54;;;;;;;9.40;6.65;;;;;;;18.82;64.90;95982.72;5040284;28;20057;-93
2022/10/01 09:35:30;;;;;;;10.77;6.15;;;;;;;18.81;65.18;95973.75;5022733;28;20507;-93
2022/10/01 09:37:57;;;;;;;10.00;4.65;;;;;;;18.82;63.52;95971.84;5035832;28;20500;-94
2022/10/01 09:40:34;;;;;;;11.52;5.07;;;;;;;18.92;64.00;96007.56;5029990;28;20042;-94
2022/10/01 09:43:03;;;;;;;8.13;5.80;;;;;;;19.03;67.07;95979.72;5039483;28;20017;-94
2022/10/01 09:45:28;;;;;;;9.70;4.90;;;;;;;18.79;64.86;95978.56;5020607;28;20033;-95
2022/10/01 09:47:56;;;;;;;8.63;5.20;;;;;;;18.96;66.83;95969.94;5030164;28;20014;-95
2022/10/01 09:50:28;;;;;;;12.50;5.43;;;;;;;18.88;66.40;95955.53;5014499;28;20075;-93
2022/10/01 09:52:53;;;;;;;12.73;5.07;;;;;;;18.98;65.50;95943.34;5014927;28;20033;-94
2022/10/01 09:55:31;;;;;;;7.90;5.65;;;;;;;19.06;65.63;95940.38;5015737;28;20030;-93
2022/10/01 09:58:00;;;;;;;7.95;5.13;;;;;;;19.15;65.53;95930.94;5034333;28;20025;-93
2022/10/01 10:00:25;;;;;;;10.45;5.80;;;;;;;19.27;66.53;95932.94;5014136;28;20037;-94
2022/10/01 10:02:52;;;;;;;15.18;5.68;;;;;;;19.08;66.37;95951.03;5019132;28;20030;-94
2022/10/01 10:05:19;;;;;;;8.98;4.93;;;;;;;19.18;64.49;95953.31;5000864;28;20026;-94
2022/10/01 10:07:49;;;;;;;7.72;5.03;;;;;;;19.21;65.82;95948.28;5037239;28;20022;-93
2022/10/01 10:10:38;;;;;;;13.52;4.75;;;;;;;19.28;65.32;95945.50;5021642;28;20045;-94
2022/10/01 10:13:52;;;;;;;9.07;4.35;;;;;;;19.29;65.84;95924.56;5026313;28;20038;-94
2022/10/01 10:16:28;;;;;;;8.40;4.05;;;;;;;19.42;66.13;95910.03;5013174;28;20077;-94
2022/10/01 10:19:14;;;;;;;15.40;5.63;;;;;;;19.55;66.85;95930.84;5027051;28;20090;-91
2022/10/01 10:21:49;;;;;;;19.10;7.20;;;;;;;19.62;67.25;95951.50;5043890;28;20022;-95
2022/10/01 10:24:31;;;;;;;18.25;6.40;;;;;;;19.61;67.88;95944.41;5042064;28;20020;-93
2022/10/01 10:26:58;;;;;;;14.68;6.47;;;;;;;19.63;69.05;95931.44;5025064;28;20085;-93
2022/10/01 10:29:31;;;;;;;12.98;5.90;;;;;;;19.38;67.87;95929.53;5024180;28;20044;-93
2022/10/01 10:31:57;;;;;;;16.08;5.07;;;;;;;19.44;67.66;95926.97;5023839;28;20093;-93
2022/10/01 10:34:30;;;;;;;11.15;6.28;;;;;;;19.48;67.29;95931.75;5029577;28;20100;-93
2022/10/01 10:37:03;;;;;;;10.40;3.45;;;;;;;19.57;65.03;95935.00;5030462;28;20025;-94
2022/10/01 10:39:34;;;;;;;5.30;3.13;;;;;;;19.66;63.19;95937.47;5015945;28;20064;-94
2022/10/01 10:42:01;;;;;;;8.15;2.38;;;;;;;19.54;62.99;95935.47;4999689;28;20033;-93
2022/10/01 10:44:33;;;;;;;5.20;1.83;;;;;;;19.55;62.86;95936.31;5030663;28;20029;-93
2022/10/01 10:47:00;;;;;;;6.20;2.17;;;;;;;19.68;63.38;95919.03;5017359;28;20030;-93
2022/10/01 10:49:28;;;;;;;4.65;1.70;;;;;;;19.56;63.42;95908.03;5012847;28;20033;-94
2022/10/01 10:51:54;;;;;;;4.72;1.50;;;;;;;19.61;63.29;95909.03;5029587;28;20136;-93
2022/10/01 10:54:36;;;;;;;5.88;1.70;;;;;;;19.66;63.94;95910.25;5016455;28;20039;-93
2022/10/01 10:57:20;;;;;;;4.75;1.75;;;;;;;19.43;65.79;95896.22;5035934;28;20036;-93
2022/10/01 11:00:12;;;;;;;4.65;2.13;;;;;;;19.54;61.95;95905.53;5054183;28;20055;-92
2022/10/01 11:02:38;;;;;;;4.70;1.80;;;;;;;19.63;62.45;95912.38;5021006;28;20120;-93
2022/10/01 11:05:20;;;;;;;4.60;2.10;;;;;;;19.61;64.78;95902.75;5053528;28;20056;-92
2022/10/01 11:07:46;;;;;;;4.72;2.20;;;;;;;19.63;64.14;95912.38;5022422;28;20048;-91
2022/10/01 11:10:33;;;;;;;5.78;1.90;;;;;;;19.54;65.72;95891.94;5038698;28;20029;-93
2022/10/01 11:13:21;;;;;;;6.20;1.92;;;;;;;19.32;67.50;95877.91;5036930;28;20056;-93
2022/10/01 11:16:04;;;;;;;4.40;2.03;;;;;;;19.26;68.93;95857.88;5055592;28;20022;-93
2022/10/01 11:18:36;;;;;;;5.05;2.00;;;;;;;19.41;69.21;95834.94;5053043;28;20017;-91
2022/10/01 11:21:26;;;;;;;5.30;1.90;;;;;;;19.38;69.39;95830.78;5051887;28;20087;-93
2022/10/01 11:24:13;;;;;;;6.40;1.60;;;;;;;19.17;69.50;95826.59;5052557;28;20037;-91
2022/10/01 11:27:02;;;;;;;6.15;2.80;;;;;;;19.13;69.40;95818.03;5039935;28;20021;-93
2022/10/01 11:30:00;;;;;;;3.28;1.92;;;;;;;19.19;68.31;95824.47;5039151;28;20026;-91
2022/10/01 11:35:41;;;;;;;5.38;2.30;;;;;;;19.03;69.20;95838.38;5615312;22;20052;-90
2022/10/01 11:38:21;;;;;;;5.25;1.98;;;;;;;19.17;69.63;95819.25;5056986;28;20025;-92
2022/10/01 11:41:25;;;;;;;7.07;2.20;;;;;;;19.35;71.17;95790.44;5057814;28;20041;-91
2022/10/01 11:43:53;;;;;;;7.32;2.83;;;;;;;19.44;70.32;95791.00;5415873;22;20008;-84
2022/10/01 11:46:40;;;;;;;4.95;2.05;;;;;;;19.38;69.32;95777.22;5002726;28;20029;-92
2022/10/01 11:49:26;;;;;;;5.60;2.03;;;;;;;19.52;70.17;95753.44;5037374;28;20045;-91
2022/10/01 11:52:15;;;;;;;7.63;2.05;;;;;;;19.13;71.78;95759.06;4999943;28;20040;-93
2022/10/01 11:54:53;;;;;;;5.93;2.53;;;;;;;18.98;73.21;95742.22;5000356;28;20081;-92
2022/10/01 12:00:08;;;;;;;4.75;2.00;;;;;;;19.23;73.32;95749.56;5002034;28;20625;-93
2022/10/01 12:02:39;;;;;;;7.00;2.60;;;;;;;19.23;72.59;95755.00;5013363;28;20078;-94
2022/10/01 12:05:21;;;;;;;6.53;2.58;;;;;;;19.37;72.52;95745.66;5034384;28;20018;-92
2022/10/01 12:07:54;;;;;;;5.85;2.67;;;;;;;19.51;72.95;95742.78;5015562;28;20033;-93
2022/10/01 12:10:45;;;;;;;5.38;2.65;;;;;;;19.56;72.66;95729.34;5015164;28;20507;-93